Time;durP1;ratioP1;P1;durP2;ratioP2;P2;SDS_P1;SDS_P2;PMS_P1;PMS_P2;Temp;Humidity;BMP_temperature;BMP_pressure;BME280_temperature;BME280_humidity;BME280_pressure;Samples;Min_cycle;Max_cycle;Signal;HPM_P1;HPM_P2
2022/03/17 00:02:59;;;;;;;20.33;12.32;;;8.60;99.90;;;;;;5030632;28;20496;-62
2022/03/17 00:06:03;;;;;;;24.63;12.25;;;8.60;99.90;;;;;;5030298;28;20400;-62
2022/03/17 00:09:07;;;;;;;22.05;12.75;;;8.60;99.90;;;;;;5030689;28;20499;-62
2022/03/17 00:12:13;;;;;;;26.17;13.75;;;8.60;99.90;;;;;;5029888;28;20057;-61
2022/03/17 00:15:17;;;;;;;23.10;13.68;;;8.40;99.90;;;;;;5030605;28;20068;-62
2022/03/17 00:18:21;;;;;;;22.70;13.50;;;8.30;99.90;;;;;;5030617;28;20041;-61
2022/03/17 00:21:26;;;;;;;27.98;13.63;;;8.30;99.90;;;;;;5028717;28;20448;-62
2022/03/17 00:24:31;;;;;;;23.65;13.68;;;8.20;99.90;;;;;;5030429;28;20044;-62
2022/03/17 00:27:35;;;;;;;19.70;12.82;;;8.20;99.90;;;;;;5029951;28;20040;-62
2022/03/17 00:30:40;;;;;;;22.20;12.52;;;8.20;99.90;;;;;;5029997;28;20057;-62
2022/03/17 00:33:44;;;;;;;18.10;11.68;;;8.20;99.90;;;;;;5030313;28;20053;-62
2022/03/17 00:36:48;;;;;;;22.33;11.80;;;8.20;99.90;;;;;;5029612;28;20400;-62
2022/03/17 00:39:53;;;;;;;28.85;14.85;;;8.20;99.90;;;;;;5030266;28;20724;-63
2022/03/17 00:42:57;;;;;;;29.73;15.55;;;8.20;99.90;;;;;;5029670;28;20041;-62
2022/03/17 00:46:01;;;;;;;26.52;15.25;;;7.90;99.90;;;;;;5029829;28;20045;-63
2022/03/17 00:49:05;;;;;;;38.28;18.02;;;7.80;99.90;;;;;;5029984;28;20048;-62
2022/03/17 00:52:12;;;;;;;30.05;17.15;;;7.70;99.90;;;;;;5029387;28;20044;-62
2022/03/17 00:55:16;;;;;;;28.92;15.23;;;7.70;99.90;;;;;;5034332;28;20503;-62
2022/03/17 00:58:19;;;;;;;24.00;13.50;;;7.60;99.90;;;;;;5033819;28;20079;-62
2022/03/17 01:01:24;;;;;;;25.48;13.57;;;7.60;99.90;;;;;;5034189;28;20045;-62
2022/03/17 01:04:28;;;;;;;25.13;14.55;;;7.60;99.90;;;;;;5034356;28;20500;-62
2022/03/17 01:07:33;;;;;;;25.35;14.80;;;7.60;99.90;;;;;;5034087;28;20048;-62
2022/03/17 01:10:38;;;;;;;32.90;16.02;;;7.60;99.90;;;;;;5033926;28;20504;-62
2022/03/17 01:13:43;;;;;;;30.90;16.48;;;7.60;99.90;;;;;;5033637;28;20079;-61
2022/03/17 01:16:47;;;;;;;31.80;17.05;;;7.60;99.90;;;;;;5033611;28;20055;-62
2022/03/17 01:19:51;;;;;;;29.02;17.40;;;7.70;99.90;;;;;;5033806;28;20056;-62
2022/03/17 01:22:56;;;;;;;29.65;14.93;;;7.70;99.90;;;;;;5033545;28;20048;-62
2022/03/17 01:25:59;;;;;;;22.85;14.27;;;7.70;99.90;;;;;;5033910;28;20040;-61
2022/03/17 01:29:03;;;;;;;29.05;13.13;;;7.70;99.90;;;;;;5033430;28;20388;-62
2022/03/17 01:32:07;;;;;;;29.30;13.07;;;7.70;99.90;;;;;;5033448;28;20044;-61
2022/03/17 01:35:11;;;;;;;33.75;16.05;;;7.80;99.90;;;;;;5033666;28;20044;-61
2022/03/17 01:38:15;;;;;;;21.17;13.40;;;7.90;99.90;;;;;;5033483;28;20048;-62
2022/03/17 01:41:20;;;;;;;27.58;16.05;;;7.90;99.90;;;;;;5032679;28;20591;-62
2022/03/17 01:44:24;;;;;;;33.50;18.98;;;8.10;99.90;;;;;;5033208;28;20491;-62
2022/03/17 01:47:28;;;;;;;31.38;19.27;;;8.20;99.90;;;;;;5033302;28;20045;-62
2022/03/17 01:50:32;;;;;;;33.40;19.88;;;8.30;99.90;;;;;;5032578;28;20048;-62
2022/03/17 01:53:38;;;;;;;26.92;16.58;;;8.40;99.90;;;;;;5033106;28;20408;-62
2022/03/17 01:56:44;;;;;;;33.47;21.15;;;8.30;99.90;;;;;;5032951;28;20439;-61
2022/03/17 01:59:50;;;;;;;37.30;20.50;;;8.30;99.90;;;;;;5032695;28;20044;-62
2022/03/17 02:02:53;;;;;;;27.35;17.33;;;8.30;99.90;;;;;;5032848;28;20053;-62
2022/03/17 02:05:57;;;;;;;37.20;19.80;;;8.30;99.90;;;;;;5032136;28;20052;-61
2022/03/17 02:09:01;;;;;;;30.75;17.85;;;8.00;99.90;;;;;;5032693;28;20044;-62
2022/03/17 02:15:32;;;;;;;23.00;16.33;;;7.80;99.90;;;;;;5032646;28;20040;-63
2022/03/17 02:18:36;;;;;;;30.33;15.70;;;7.70;99.90;;;;;;5032614;28;20048;-62
2022/03/17 02:21:40;;;;;;;30.08;17.08;;;7.70;99.90;;;;;;5032076;28;20503;-62
2022/03/17 02:28:08;;;;;;;37.28;19.98;;;7.70;99.90;;;;;;5032084;28;20048;-63
2022/03/17 02:31:12;;;;;;;44.58;20.98;;;7.80;99.90;;;;;;5031315;28;20071;-62
2022/03/17 02:34:18;;;;;;;29.60;18.67;;;7.90;99.90;;;;;;5032207;28;20041;-61
2022/03/17 02:37:24;;;;;;;37.25;18.83;;;7.90;99.90;;;;;;5032115;28;20049;-62
2022/03/17 02:40:28;;;;;;;34.80;19.58;;;8.00;99.90;;;;;;5032134;28;20037;-62
2022/03/17 02:43:32;;;;;;;33.97;18.63;;;7.90;99.90;;;;;;5031914;28;20048;-62
2022/03/17 02:46:36;;;;;;;25.73;14.75;;;7.90;99.90;;;;;;5032242;28;20492;-62
2022/03/17 02:49:40;;;;;;;22.80;11.73;;;7.90;99.90;;;;;;5031947;28;20052;-62
2022/03/17 02:52:45;;;;;;;20.80;10.45;;;7.90;99.90;;;;;;5031552;28;20041;-62
2022/03/17 02:55:49;;;;;;;25.02;13.02;;;7.90;99.90;;;;;;5032223;28;20041;-63
2022/03/17 02:58:53;;;;;;;23.75;14.57;;;7.90;99.90;;;;;;5031006;28;20049;-62
2022/03/17 03:01:57;;;;;;;32.63;17.63;;;7.90;99.90;;;;;;5031292;28;20048;-62
2022/03/17 03:05:02;;;;;;;29.17;16.75;;;7.90;99.90;;;;;;5031779;28;20044;-62
2022/03/17 03:08:06;;;;;;;27.52;15.35;;;8.00;99.90;;;;;;5031743;28;20048;-61
2022/03/17 03:11:11;;;;;;;29.88;15.88;;;8.00;99.90;;;;;;5031276;28;20052;-62
2022/03/17 03:14:16;;;;;;;28.92;16.98;;;7.90;99.90;;;;;;5031426;28;20044;-62
2022/03/17 03:17:23;;;;;;;33.05;17.75;;;7.90;99.90;;;;;;5029852;28;20048;-62
2022/03/17 03:20:27;;;;;;;35.03;16.85;;;7.80;99.90;;;;;;5030994;28;20044;-62
2022/03/17 03:23:31;;;;;;;25.63;15.98;;;7.80;99.90;;;;;;5031583;28;20040;-61
2022/03/17 03:26:36;;;;;;;26.80;14.90;;;7.70;99.90;;;;;;5031360;28;20040;-61
2022/03/17 03:29:39;;;;;;;32.15;15.32;;;7.70;99.90;;;;;;5030930;28;20037;-62
2022/03/17 03:32:50;;;;;;;29.67;15.20;;;7.60;99.90;;;;;;5031265;28;20190;-61
2022/03/17 03:39:16;;;;;;;33.53;17.10;;;7.50;99.90;;;;;;5030094;28;20036;-62
2022/03/17 03:42:21;;;;;;;25.73;13.75;;;7.50;99.90;;;;;;5030915;28;20048;-61
2022/03/17 03:45:26;;;;;;;24.85;14.68;;;7.50;99.90;;;;;;5031222;28;20049;-61
2022/03/17 03:48:31;;;;;;;31.65;14.63;;;7.50;99.90;;;;;;5030985;28;20041;-62
2022/03/17 03:51:36;;;;;;;30.20;16.45;;;7.50;99.90;;;;;;5030405;28;20052;-61
2022/03/17 03:54:40;;;;;;;31.15;15.40;;;7.50;99.90;;;;;;5030789;28;20044;-62
2022/03/17 03:57:46;;;;;;;27.00;16.00;;;7.50;99.90;;;;;;5029921;28;20064;-62
2022/03/17 04:00:50;;;;;;;31.58;16.73;;;7.40;99.90;;;;;;5029923;28;20049;-62
2022/03/17 04:03:54;;;;;;;26.77;16.02;;;7.50;99.90;;;;;;5031010;28;20052;-62
2022/03/17 04:07:01;;;;;;;35.83;20.20;;;7.50;99.90;;;;;;5029595;28;20495;-62
2022/03/17 04:10:05;;;;;;;38.35;17.92;;;7.50;99.90;;;;;;5029797;28;20064;-62
2022/03/17 04:13:09;;;;;;;28.35;15.98;;;7.50;99.90;;;;;;5030257;28;20056;-62
2022/03/17 04:16:13;;;;;;;34.60;17.00;;;7.50;99.90;;;;;;5030045;28;20056;-62
2022/03/17 04:19:19;;;;;;;26.13;14.93;;;7.50;99.90;;;;;;5030130;28;20052;-62
2022/03/17 04:22:23;;;;;;;27.67;16.52;;;7.50;99.90;;;;;;5029776;28;20503;-61
2022/03/17 04:25:27;;;;;;;29.85;15.80;;;7.50;99.90;;;;;;5030824;28;20040;-62
2022/03/17 04:28:32;;;;;;;34.50;17.17;;;7.40;99.90;;;;;;5029944;28;20522;-61
2022/03/17 04:31:39;;;;;;;31.90;16.25;;;7.50;99.90;;;;;;5030196;28;20048;-62
2022/03/17 04:34:42;;;;;;;26.10;16.40;;;7.50;99.90;;;;;;5030306;28;20507;-62
2022/03/17 04:37:46;;;;;;;34.30;16.85;;;7.50;99.90;;;;;;5030175;28;20400;-62
2022/03/17 04:40:51;;;;;;;30.63;16.70;;;7.50;99.90;;;;;;5029820;28;20044;-62
2022/03/17 04:43:55;;;;;;;34.45;16.40;;;7.40;99.90;;;;;;5030031;28;20393;-62
2022/03/17 04:47:00;;;;;;;33.85;17.33;;;7.30;99.90;;;;;;5030434;28;20060;-62
2022/03/17 04:50:04;;;;;;;38.75;20.27;;;7.20;99.90;;;;;;5029894;28;20044;-62
2022/03/17 04:56:31;;;;;;;38.15;21.92;;;7.10;99.90;;;;;;5030132;28;20531;-62
2022/03/17 04:59:35;;;;;;;41.95;20.75;;;7.00;99.90;;;;;;5029113;28;20040;-61
2022/03/17 05:02:39;;;;;;;51.17;24.70;;;7.00;99.90;;;;;;5029773;28;20048;-62
2022/03/17 05:05:43;;;;;;;51.13;25.30;;;6.90;99.90;;;;;;5029834;28;20040;-62
2022/03/17 05:08:47;;;;;;;42.65;22.95;;;6.80;99.90;;;;;;5029889;28;20044;-62
2022/03/17 05:11:52;;;;;;;39.58;20.17;;;6.80;99.90;;;;;;5029449;28;20076;-62
2022/03/17 05:14:58;;;;;;;34.90;19.50;;;6.70;99.90;;;;;;5029588;28;20064;-62
2022/03/17 05:18:05;;;;;;;40.80;20.50;;;6.70;99.90;;;;;;5029920;28;20055;-62
2022/03/17 05:21:08;;;;;;;34.15;20.17;;;6.70;99.90;;;;;;5028967;28;20066;-62
2022/03/17 05:24:13;;;;;;;36.03;21.83;;;6.70;99.90;;;;;;5029843;28;20052;-62
2022/03/17 05:27:16;;;;;;;42.67;25.35;;;6.70;99.90;;;;;;5029858;28;20049;-62
2022/03/17 05:30:21;;;;;;;43.00;27.58;;;6.80;99.90;;;;;;5029692;28;20056;-62
2022/03/17 05:33:25;;;;;;;51.75;31.02;;;6.70;99.90;;;;;;5029905;28;20056;-62
2022/03/17 05:36:29;;;;;;;43.72;23.73;;;6.80;99.90;;;;;;5029688;28;20068;-62
2022/03/17 05:39:32;;;;;;;40.38;22.15;;;6.90;99.90;;;;;;5029861;28;20060;-62
2022/03/17 05:42:37;;;;;;;34.08;20.35;;;7.10;99.90;;;;;;5032791;28;20048;-62
2022/03/17 05:45:43;;;;;;;32.50;17.67;;;7.30;99.90;;;;;;5033570;28;20048;-61
2022/03/17 05:48:47;;;;;;;31.52;15.73;;;7.50;99.90;;;;;;5033039;28;20400;-61
2022/03/17 05:51:52;;;;;;;28.85;15.02;;;7.80;99.90;;;;;;5032016;28;20044;-62
2022/03/17 05:54:55;;;;;;;22.88;14.20;;;8.10;99.90;;;;;;5033296;28;20045;-62
2022/03/17 05:58:01;;;;;;;27.08;14.65;;;8.40;99.90;;;;;;5032873;28;20056;-62
2022/03/17 06:01:05;;;;;;;24.45;11.90;;;8.70;99.90;;;;;;5031387;28;20051;-62
2022/03/17 06:04:09;;;;;;;27.83;13.77;;;9.10;99.90;;;;;;5032144;28;20052;-62
2022/03/17 06:07:13;;;;;;;32.05;14.18;;;9.30;99.90;;;;;;5032813;28;20045;-62
2022/03/17 06:10:21;;;;;;;27.25;15.00;;;9.60;99.90;;;;;;5032505;28;20037;-62
2022/03/17 06:13:25;;;;;;;23.55;15.00;;;9.40;99.90;;;;;;5032295;28;20068;-62
2022/03/17 06:16:30;;;;;;;26.60;15.27;;;10.00;99.90;;;;;;5032824;28;20068;-62
2022/03/17 06:19:34;;;;;;;26.60;13.63;;;10.10;99.90;;;;;;5032342;28;20048;-62
2022/03/17 06:22:40;;;;;;;27.27;12.85;;;10.50;99.90;;;;;;5031981;28;20068;-62
2022/03/17 06:25:44;;;;;;;26.77;13.98;;;11.00;99.90;;;;;;5032639;28;20045;-63
2022/03/17 06:28:49;;;;;;;21.33;12.32;;;11.50;99.90;;;;;;5032235;28;20049;-62
2022/03/17 06:31:52;;;;;;;18.08;12.73;;;11.60;99.90;;;;;;5031694;28;20049;-62
2022/03/17 06:34:57;;;;;;;19.77;12.82;;;11.90;99.90;;;;;;5032245;28;20052;-62
2022/03/17 06:38:04;;;;;;;24.10;13.40;;;12.10;99.90;;;;;;5032132;28;20061;-62
2022/03/17 06:41:09;;;;;;;20.33;13.60;;;12.00;99.90;;;;;;5030665;28;20511;-62
2022/03/17 06:44:13;;;;;;;22.58;13.13;;;12.00;99.90;;;;;;5033174;28;20060;-59
2022/03/17 06:47:17;;;;;;;24.02;13.60;;;11.80;99.90;;;;;;5033336;28;20139;-62
2022/03/17 06:50:22;;;;;;;19.98;12.75;;;11.70;99.90;;;;;;5032121;28;20522;-62
2022/03/17 06:53:27;;;;;;;18.23;12.85;;;11.70;99.90;;;;;;5032493;28;20052;-62
2022/03/17 06:56:31;;;;;;;23.15;13.45;;;11.80;99.90;;;;;;5031988;28;20052;-62
2022/03/17 06:59:35;;;;;;;20.98;12.50;;;11.80;99.90;;;;;;5032092;28;20041;-62
2022/03/17 07:02:40;;;;;;;22.30;11.70;;;11.80;99.90;;;;;;5031581;28;20065;-62
2022/03/17 07:05:44;;;;;;;24.73;13.10;;;12.00;99.90;;;;;;5031791;28;20483;-62
2022/03/17 07:08:48;;;;;;;27.08;12.93;;;11.90;99.90;;;;;;5032266;28;20498;-63
2022/03/17 07:11:52;;;;;;;24.02;14.02;;;11.40;99.90;;;;;;5030291;28;20040;-62
2022/03/17 07:14:56;;;;;;;25.48;13.63;;;11.00;99.90;;;;;;5031758;28;20072;-62
2022/03/17 07:18:00;;;;;;;22.27;12.13;;;11.50;99.90;;;;;;5031566;28;20060;-62
2022/03/17 07:21:05;;;;;;;23.40;11.90;;;11.80;99.90;;;;;;5030344;28;20056;-62
2022/03/17 07:24:09;;;;;;;21.83;12.10;;;12.20;99.90;;;;;;5028969;28;20036;-62
2022/03/17 07:27:13;;;;;;;19.88;12.02;;;12.50;99.90;;;;;;5028568;28;20052;-62
2022/03/17 07:30:22;;;;;;;21.42;12.02;;;12.90;99.90;;;;;;5025522;28;20044;-62
2022/03/17 07:33:26;;;;;;;26.77;12.02;;;13.20;99.90;;;;;;5021878;28;20084;-63
2022/03/17 07:36:30;;;;;;;25.65;13.75;;;13.20;99.90;;;;;;5029898;28;20652;-62
2022/03/17 07:39:35;;;;;;;23.25;12.88;;;12.40;99.90;;;;;;5030789;28;20128;-62
2022/03/17 07:42:39;;;;;;;20.10;13.63;;;12.70;99.90;;;;;;5027979;28;20107;-63
2022/03/17 07:46:02;;;;;;;24.50;13.43;;;12.10;99.90;;;;;;5029680;28;20052;-62
2022/03/17 07:49:32;;;;;;;22.65;14.63;;;12.10;99.90;;;;;;5030387;28;20040;-60
2022/03/17 07:52:36;;;;;;;30.38;15.02;;;12.00;99.90;;;;;;5025661;28;20515;-62
2022/03/17 07:55:42;;;;;;;23.63;14.48;;;11.60;99.90;;;;;;5028915;28;20044;-61
2022/03/17 07:58:46;;;;;;;29.55;12.88;;;12.30;99.90;;;;;;5025019;28;20044;-63
2022/03/17 08:01:51;;;;;;;20.50;13.88;;;13.10;99.90;;;;;;5025369;28;20064;-63
2022/03/17 08:04:56;;;;;;;18.75;13.07;;;12.70;99.90;;;;;;5025157;28;20037;-62
2022/03/17 08:08:00;;;;;;;24.77;13.02;;;13.40;99.90;;;;;;5026781;28;20044;-60
2022/03/17 08:11:04;;;;;;;25.48;14.68;;;13.90;99.90;;;;;;5028489;28;20060;-60
2022/03/17 08:14:09;;;;;;;22.73;12.55;;;13.50;99.90;;;;;;5027443;28;20052;-61
2022/03/17 13:30:17;;;;;;;28.50;6.20;;;20.20;91.20;;;;;;5097503;27;1503036;-71
2022/03/17 13:33:27;;;;;;;26.15;6.93;;;21.00;91.10;;;;;;5123917;27;20303;-71
2022/03/17 13:36:50;;;;;;;26.27;6.60;;;20.90;91.20;;;;;;5123986;28;20032;-71
2022/03/17 13:40:00;;;;;;;27.85;7.70;;;21.00;91.40;;;;;;5118990;28;20504;-71
2022/03/17 13:43:06;;;;;;;30.75;7.97;;;20.90;91.20;;;;;;5121885;28;20030;-71
2022/03/17 13:46:19;;;;;;;34.65;7.40;;;20.70;91.00;;;;;;5121296;28;20050;-71
2022/03/17 13:49:27;;;;;;;36.08;6.32;;;20.50;91.30;;;;;;5123049;28;20042;-71
2022/03/17 13:52:31;;;;;;;35.63;7.90;;;20.40;91.20;;;;;;5113205;28;20047;-71
2022/03/17 13:55:47;;;;;;;34.65;6.97;;;19.50;91.40;;;;;;5127181;28;20047;-71
2022/03/17 13:58:57;;;;;;;24.30;8.00;;;19.00;92.40;;;;;;5121691;28;20050;-71
2022/03/17 14:02:14;;;;;;;33.80;7.93;;;19.00;92.70;;;;;;5115940;28;20047;-71
2022/03/17 14:05:19;;;;;;;29.13;8.80;;;18.90;92.80;;;;;;5120021;28;20046;-71
2022/03/17 14:08:23;;;;;;;38.75;8.35;;;18.50;93.20;;;;;;5125754;28;20050;-70
2022/03/17 14:11:29;;;;;;;29.65;10.02;;;18.30;93.30;;;;;;5121309;28;20038;-71
2022/03/17 14:14:36;;;;;;;31.35;9.05;;;18.00;93.50;;;;;;5128302;28;20030;-70
2022/03/17 14:17:40;;;;;;;27.70;9.15;;;17.70;93.70;;;;;;5128535;28;20050;-70
2022/03/17 14:20:44;;;;;;;27.67;8.93;;;17.60;94.20;;;;;;5126957;28;20042;-70
2022/03/17 14:27:13;;;;;;;27.77;10.25;;;17.40;94.70;;;;;;5127324;28;20038;-70
2022/03/17 14:30:42;;;;;;;23.10;11.00;;;17.30;94.80;;;;;;5101235;28;20540;-70
2022/03/17 14:33:50;;;;;;;46.05;12.75;;;17.00;95.10;;;;;;5093832;28;20043;-70
2022/03/17 14:36:54;;;;;;;31.88;12.20;;;16.90;95.30;;;;;;5114410;28;20046;-70
2022/03/17 14:39:59;;;;;;;36.63;13.68;;;16.70;95.20;;;;;;5113681;28;20054;-70
2022/03/17 14:43:04;;;;;;;40.17;11.27;;;16.50;95.90;;;;;;5113898;28;20066;-69
2022/03/17 14:46:08;;;;;;;28.45;11.02;;;16.50;95.80;;;;;;5113092;28;20054;-70
2022/03/17 14:49:13;;;;;;;40.33;12.05;;;16.20;96.30;;;;;;5112052;28;20039;-70
2022/03/17 14:52:17;;;;;;;30.38;12.15;;;16.10;96.50;;;;;;5100573;28;20054;-70
2022/03/17 14:55:21;;;;;;;40.80;14.23;;;16.00;96.80;;;;;;5113099;28;20051;-70
2022/03/17 14:58:27;;;;;;;32.85;12.05;;;15.90;97.10;;;;;;5112948;28;20391;-70
2022/03/17 15:01:31;;;;;;;35.22;11.98;;;15.90;97.10;;;;;;5112863;28;20035;-70
2022/03/17 15:04:35;;;;;;;38.13;12.23;;;15.80;97.20;;;;;;5112991;28;20054;-71
2022/03/17 15:07:43;;;;;;;34.15;12.88;;;15.80;97.60;;;;;;5110804;28;20373;-70
2022/03/17 15:10:47;;;;;;;40.88;13.40;;;15.70;97.40;;;;;;5105980;28;20042;-70
2022/03/17 15:13:51;;;;;;;39.70;13.40;;;15.70;97.30;;;;;;5113714;28;20043;-69
2022/03/17 15:16:55;;;;;;;37.58;12.75;;;15.60;97.60;;;;;;5112562;28;20051;-70
2022/03/17 15:19:58;;;;;;;41.00;12.30;;;15.50;98.00;;;;;;5112970;28;20049;-70
2022/03/17 15:23:02;;;;;;;29.20;12.65;;;15.40;97.90;;;;;;5107773;28;20042;-71
2022/03/17 15:26:06;;;;;;;30.73;13.40;;;15.20;98.40;;;;;;5104942;28;20043;-71
2022/03/17 15:32:33;;;;;;;;;;;15.10;98.70;;;;;;5112078;28;20043;-70
2022/03/17 15:35:40;;;;;;;33.53;11.65;;;15.00;98.70;;;;;;5112879;28;19914;-72
2022/03/17 15:38:46;;;;;;;26.55;12.48;;;15.10;98.70;;;;;;5107771;28;20057;-71
2022/03/17 15:41:50;;;;;;;37.55;12.82;;;15.10;98.70;;;;;;5109990;28;20054;-71
2022/03/17 15:44:54;;;;;;;36.58;13.70;;;15.00;98.70;;;;;;5098649;28;20046;-71
2022/03/17 15:47:59;;;;;;;37.67;12.25;;;15.00;98.60;;;;;;5109989;28;20054;-71
2022/03/17 15:51:03;;;;;;;36.47;12.00;;;14.90;98.60;;;;;;5108138;28;20046;-71
2022/03/17 15:54:07;;;;;;;27.02;10.73;;;14.90;98.70;;;;;;5105579;28;20031;-71
2022/03/17 15:57:11;;;;;;;36.70;12.70;;;14.70;98.70;;;;;;5112519;28;20047;-69
2022/03/17 16:00:19;;;;;;;37.13;12.32;;;14.70;98.70;;;;;;5112159;28;20054;-71
2022/03/17 16:03:22;;;;;;;37.10;12.05;;;14.70;99.10;;;;;;5112021;28;20062;-70
2022/03/17 16:06:28;;;;;;;31.85;11.77;;;14.70;98.90;;;;;;5111435;28;20042;-71
2022/03/17 16:16:19;;;;;;;35.65;12.77;;;14.40;99.60;;;;;;5112182;28;20046;-71
2022/03/17 16:19:24;;;;;;;43.10;12.50;;;14.40;99.70;;;;;;5109951;28;20045;-71
2022/03/17 16:22:28;;;;;;;31.40;13.18;;;14.40;99.60;;;;;;5110965;28;20055;-71
2022/03/17 16:25:35;;;;;;;22.75;10.88;;;14.30;99.90;;;;;;5110764;28;20065;-71
2022/03/17 16:28:39;;;;;;;25.52;11.43;;;14.30;99.90;;;;;;5106566;28;20042;-72
2022/03/17 16:31:47;;;;;;;25.77;11.07;;;14.30;99.80;;;;;;5113728;28;20050;-70
2022/03/17 16:34:52;;;;;;;23.27;10.85;;;14.30;99.90;;;;;;5110779;28;20047;-65
2022/03/17 16:37:56;;;;;;;37.90;13.57;;;14.10;99.90;;;;;;5111977;28;20038;-66
2022/03/17 16:41:00;;;;;;;38.08;12.18;;;14.00;99.90;;;;;;5110574;28;20381;-65
2022/03/17 16:44:05;;;;;;;31.88;11.80;;;14.00;99.90;;;;;;5111304;28;20043;-65
2022/03/17 16:47:09;;;;;;;34.10;10.30;;;14.00;99.80;;;;;;5111390;28;20062;-65
2022/03/17 16:50:13;;;;;;;26.88;9.65;;;14.00;99.90;;;;;;5110737;28;20043;-65
2022/03/17 16:53:17;;;;;;;32.60;13.07;;;14.00;99.80;;;;;;5111491;28;20042;-65
2022/03/17 16:56:23;;;;;;;25.90;11.93;;;13.90;99.40;;;;;;5111875;28;20050;-64
2022/03/17 16:59:27;;;;;;;26.10;12.10;;;13.80;99.50;;;;;;5110231;28;20488;-65
2022/03/17 17:02:33;;;;;;;33.47;13.18;;;13.80;99.20;;;;;;5110651;28;20058;-65
2022/03/17 17:05:38;;;;;;;48.38;13.30;;;13.70;99.20;;;;;;5111473;28;20043;-65
2022/03/17 17:08:42;;;;;;;22.20;9.15;;;13.80;98.90;;;;;;5110686;28;20062;-65
2022/03/17 17:11:46;;;;;;;21.58;10.65;;;13.80;98.30;;;;;;5111336;28;20034;-65
2022/03/17 17:14:51;;;;;;;38.33;11.57;;;13.70;98.40;;;;;;5111073;28;20043;-65
2022/03/17 17:17:55;;;;;;;30.92;11.77;;;13.70;98.30;;;;;;5110988;28;20046;-65
2022/03/17 17:20:59;;;;;;;36.90;10.38;;;13.70;98.30;;;;;;5110935;28;20046;-65
2022/03/17 17:30:58;;;;;;;26.67;9.50;;;13.50;98.10;;;;;;5105482;28;20042;-66
2022/03/17 17:34:04;;;;;;;28.15;8.98;;;13.60;98.10;;;;;;5111044;28;20039;-65
2022/03/17 17:37:08;;;;;;;36.97;10.93;;;13.50;98.00;;;;;;5110758;28;20047;-66
2022/03/17 17:40:13;;;;;;;26.70;11.13;;;13.50;97.80;;;;;;5110524;28;20374;-65
2022/03/17 17:43:18;;;;;;;30.15;8.95;;;13.50;97.70;;;;;;5111333;28;20051;-65
2022/03/17 17:46:23;;;;;;;24.20;9.93;;;13.60;97.30;;;;;;5110977;28;20426;-65
2022/03/17 17:49:27;;;;;;;29.23;10.07;;;13.50;97.40;;;;;;5110348;28;20114;-66
2022/03/17 17:52:36;;;;;;;37.30;11.52;;;13.40;97.50;;;;;;5110797;28;20038;-65
2022/03/17 17:55:43;;;;;;;25.20;9.43;;;13.40;97.20;;;;;;5110581;28;20046;-65
2022/03/17 17:58:47;;;;;;;38.05;9.80;;;13.40;96.90;;;;;;5110473;28;20381;-66
2022/03/17 18:01:51;;;;;;;33.28;10.80;;;13.40;96.80;;;;;;5110793;28;20050;-66
2022/03/17 18:04:55;;;;;;;23.20;9.85;;;13.40;96.90;;;;;;5111509;28;20406;-65
2022/03/17 18:07:59;;;;;;;34.88;10.93;;;13.40;96.80;;;;;;5114400;28;20047;-65
2022/03/17 18:11:03;;;;;;;33.55;9.40;;;13.30;96.90;;;;;;5114449;28;20057;-66
2022/03/17 18:14:08;;;;;;;37.00;11.63;;;13.30;96.60;;;;;;5114714;28;20058;-65
2022/03/17 18:17:12;;;;;;;45.03;10.25;;;13.40;96.30;;;;;;5114933;28;20050;-65
2022/03/17 18:20:17;;;;;;;26.27;9.32;;;13.40;96.30;;;;;;5113867;28;20044;-65
2022/03/17 18:23:21;;;;;;;29.20;10.25;;;13.40;96.30;;;;;;5114568;28;20055;-63
2022/03/17 18:26:25;;;;;;;32.25;9.50;;;13.40;96.20;;;;;;5114666;28;20038;-66
2022/03/17 18:29:30;;;;;;;42.10;11.75;;;13.40;96.20;;;;;;5113848;28;20059;-65
2022/03/17 18:32:43;;;;;;;38.60;10.85;;;13.40;96.30;;;;;;5114216;28;20054;-64
2022/03/17 18:35:47;;;;;;;51.45;10.90;;;13.40;96.60;;;;;;5113099;28;20066;-64
2022/03/17 18:38:51;;;;;;;28.05;9.95;;;13.40;96.20;;;;;;5113467;28;20046;-65
2022/03/17 18:41:55;;;;;;;35.83;11.70;;;13.40;96.30;;;;;;5113999;28;20050;-66
2022/03/17 18:44:59;;;;;;;34.65;12.43;;;13.40;96.60;;;;;;5113849;28;20034;-65
2022/03/17 18:48:03;;;;;;;32.95;11.23;;;13.40;96.50;;;;;;5113503;28;20038;-66
2022/03/17 18:51:07;;;;;;;25.15;8.98;;;13.30;96.50;;;;;;5112696;28;20062;-66
2022/03/17 18:54:21;;;;;;;28.67;9.88;;;13.30;96.60;;;;;;5113634;28;20393;-65
2022/03/17 18:57:25;;;;;;;39.95;11.32;;;13.30;96.50;;;;;;5113409;28;20038;-67
2022/03/17 19:00:29;;;;;;;25.33;10.23;;;13.20;96.60;;;;;;5112006;28;20405;-65
2022/03/17 19:03:33;;;;;;;26.63;9.65;;;13.20;96.70;;;;;;5112421;28;20051;-66
2022/03/17 19:06:37;;;;;;;31.13;10.02;;;13.20;96.70;;;;;;5112466;28;20042;-66
2022/03/17 19:09:41;;;;;;;31.63;10.40;;;13.20;96.60;;;;;;5112839;28;20496;-66
2022/03/17 19:12:46;;;;;;;26.75;9.55;;;13.10;96.80;;;;;;5112433;28;20393;-65
2022/03/17 19:15:53;;;;;;;36.47;11.38;;;13.20;96.80;;;;;;5112991;28;20050;-65
2022/03/17 19:18:57;;;;;;;34.00;10.38;;;13.30;96.90;;;;;;5112535;28;20042;-66
2022/03/17 19:22:02;;;;;;;40.55;10.55;;;13.20;96.80;;;;;;5113186;28;20039;-66
2022/03/17 19:25:09;;;;;;;30.40;9.68;;;13.20;96.70;;;;;;5113050;28;20382;-66
2022/03/17 19:28:14;;;;;;;25.75;9.65;;;13.20;96.60;;;;;;5112296;28;20031;-66
2022/03/17 19:31:18;;;;;;;33.40;10.75;;;13.00;96.80;;;;;;5112884;28;20039;-66
2022/03/17 19:34:22;;;;;;;38.28;17.48;;;13.10;97.60;;;;;;5112936;28;20047;-66
2022/03/17 19:37:29;;;;;;;69.38;29.58;;;13.00;99.90;;;;;;5112032;28;20059;-66
2022/03/17 19:44:07;;;;;;;41.58;10.57;;;12.50;99.90;;;;;;5113765;28;20398;-66
2022/03/17 19:47:15;;;;;;;49.80;21.67;;;12.80;97.80;;;;;;5112388;28;20039;-66
2022/03/17 19:51:04;;;;;;;38.28;12.00;;;12.90;99.30;;;;;;5112019;28;20043;-67
2022/03/17 19:53:44;;;;;;;31.85;9.57;;;12.70;99.50;;;;;;5115854;28;20405;-66
2022/03/17 19:56:48;;;;;;;42.53;14.35;;;12.60;98.00;;;;;;5111984;28;20386;-66
2022/03/17 19:59:52;;;;;;;51.92;11.77;;;12.70;98.00;;;;;;5111688;28;20047;-66
2022/03/17 20:02:56;;;;;;;38.70;17.85;;;12.70;97.60;;;;;;5112102;28;20051;-66
2022/03/17 20:06:01;;;;;;;48.15;23.95;;;12.50;99.90;;;;;;5112099;28;20043;-66
2022/03/17 20:09:05;;;;;;;56.17;28.17;;;12.40;99.90;;;;;;5111572;28;20063;-67
2022/03/17 20:15:31;;;;;;;36.72;14.20;;;12.10;99.90;;;;;;5112165;28;20050;-67
2022/03/17 20:18:37;;;;;;;42.65;18.77;;;12.10;99.80;;;;;;5111347;28;20054;-67
2022/03/17 20:21:42;;;;;;;40.42;16.45;;;12.10;99.90;;;;;;5111917;28;20046;-67
2022/03/17 20:24:46;;;;;;;43.17;17.88;;;12.00;99.90;;;;;;5111061;28;20035;-66
2022/03/17 20:27:50;;;;;;;37.00;17.67;;;12.00;99.90;;;;;;5111430;28;20050;-67
2022/03/17 20:30:54;;;;;;;37.03;15.93;;;12.00;99.90;;;;;;5111263;28;20043;-66
2022/03/17 20:34:01;;;;;;;35.05;17.38;;;11.90;99.90;;;;;;5112182;28;20039;-66
2022/03/17 20:37:06;;;;;;;37.17;17.00;;;11.80;99.90;;;;;;5111716;28;20046;-64
2022/03/17 20:40:11;;;;;;;32.05;16.23;;;11.70;99.90;;;;;;5111030;28;20046;-67
2022/03/17 20:43:16;;;;;;;44.42;22.55;;;11.50;99.90;;;;;;5111827;28;20046;-66
2022/03/17 20:46:19;;;;;;;40.97;14.32;;;11.50;99.90;;;;;;5111801;28;20035;-67
2022/03/17 20:49:25;;;;;;;32.47;14.88;;;11.50;99.90;;;;;;5110133;28;20046;-66
2022/03/17 20:52:29;;;;;;;29.63;14.77;;;11.40;99.90;;;;;;5111723;28;20063;-67
2022/03/17 20:55:33;;;;;;;35.83;15.48;;;11.30;99.90;;;;;;5111364;28;20504;-67
2022/03/17 20:58:37;;;;;;;26.95;15.02;;;11.30;99.90;;;;;;5109708;28;20405;-67
2022/03/17 21:01:41;;;;;;;39.03;14.55;;;11.20;99.90;;;;;;5111120;28;20058;-67
2022/03/17 21:04:45;;;;;;;32.28;13.77;;;11.20;99.90;;;;;;5111055;28;20035;-67
2022/03/17 21:07:51;;;;;;;33.40;16.13;;;11.10;99.90;;;;;;5110933;28;20397;-67
2022/03/17 21:10:55;;;;;;;31.80;15.63;;;11.10;99.90;;;;;;5111098;28;20053;-67
2022/03/17 21:13:59;;;;;;;28.25;13.90;;;11.10;99.90;;;;;;5110079;28;20043;-68
2022/03/17 21:17:03;;;;;;;29.35;12.50;;;11.10;99.90;;;;;;5110429;28;20047;-67
2022/03/17 21:20:10;;;;;;;28.33;13.05;;;11.00;99.90;;;;;;5110387;28;20508;-67
2022/03/17 21:23:13;;;;;;;34.00;12.02;;;11.00;99.90;;;;;;5110981;28;20505;-67
2022/03/17 21:26:18;;;;;;;27.95;11.90;;;11.00;99.90;;;;;;5110903;28;20050;-67
2022/03/17 21:29:22;;;;;;;46.17;15.50;;;11.10;99.90;;;;;;5110292;28;20047;-67
2022/03/17 21:32:26;;;;;;;36.45;9.88;;;11.10;99.90;;;;;;5110919;28;20417;-67
2022/03/17 21:35:30;;;;;;;29.20;10.27;;;11.50;98.20;;;;;;5111122;28;20050;-65
2022/03/17 21:38:35;;;;;;;28.48;10.13;;;11.70;96.70;;;;;;5110323;28;20038;-65
2022/03/17 21:41:39;;;;;;;29.80;10.88;;;11.90;96.50;;;;;;5114971;28;20047;-65